RJTT/HND METAR and TAF weather

Enter ICAO airport designator
Station Type Date Time Source
RJTT METAR 2022/05/23 14:30 UTC NOAA

RJTT 231430Z 13007KT 9999 FEW030 SCT050 BKN/// 17/15 Q1016 NOSIG


Station Type Date Time Source
RJTT Decoded METAR 2022/05/23 14:30 UTC NOAA

Tokyo International Airport, Japan (RJTT) 35-33N 139-47E 8M
May 23, 2022 - 10:30 AM EDT / 2022.05.23 1430 UTC
Wind: from the SE (130 degrees) at 8 MPH (7 KT):0
Visibility: greater than 7 mile(s):0
Sky conditions: mostly cloudy
Temperature: 62 F (17 C)
Dew Point: 59 F (15 C)
Relative Humidity: 88%
Pressure (altimeter): 30.00 in. Hg (1016 hPa)
ob: RJTT 231430Z 13007KT 9999 FEW030 SCT050 BKN/// 17/15 Q1016 NOSIG
cycle: 14

Station Type Date Time Source
RJTT TAF 2022/05/23 12:33 UTC NOAA

TAF RJTT 231105Z 2312/2418 18006KT 9999 FEW020 BKN030
BECMG 2400/2403 20016KT

Example: see airport list